sensor_id;sensor_type;location;lat;lon;timestamp;P1;durP1;ratioP1;P2;durP2;ratioP2
19905;SDS011;10115;50.906;4.438;2024-02-23T00:01:43;40.83;;;39.00;;
19905;SDS011;10115;50.906;4.438;2024-02-23T00:04:09;31.33;;;29.93;;
19905;SDS011;10115;50.906;4.438;2024-02-23T00:06:35;32.70;;;31.10;;
19905;SDS011;10115;50.906;4.438;2024-02-23T00:09:00;28.73;;;27.27;;
19905;SDS011;10115;50.906;4.438;2024-02-23T00:11:26;28.60;;;27.33;;
19905;SDS011;10115;50.906;4.438;2024-02-23T00:13:53;31.60;;;30.20;;
19905;SDS011;10115;50.906;4.438;2024-02-23T00:16:19;28.00;;;26.80;;
19905;SDS011;10115;50.906;4.438;2024-02-23T00:18:44;36.03;;;34.43;;
19905;SDS011;10115;50.906;4.438;2024-02-23T00:21:10;41.83;;;40.03;;
19905;SDS011;10115;50.906;4.438;2024-02-23T00:23:36;34.90;;;33.40;;
19905;SDS011;10115;50.906;4.438;2024-02-23T00:26:02;35.43;;;33.53;;
19905;SDS011;10115;50.906;4.438;2024-02-23T00:28:28;35.37;;;32.80;;
19905;SDS011;10115;50.906;4.438;2024-02-23T00:30:53;37.43;;;35.80;;
19905;SDS011;10115;50.906;4.438;2024-02-23T00:33:19;38.33;;;36.27;;
19905;SDS011;10115;50.906;4.438;2024-02-23T00:35:45;42.83;;;40.93;;
19905;SDS011;10115;50.906;4.438;2024-02-23T00:38:10;30.17;;;28.87;;
19905;SDS011;10115;50.906;4.438;2024-02-23T00:40:36;29.40;;;28.10;;
19905;SDS011;10115;50.906;4.438;2024-02-23T00:43:03;31.63;;;30.23;;
19905;SDS011;10115;50.906;4.438;2024-02-23T00:45:29;36.20;;;34.33;;
19905;SDS011;10115;50.906;4.438;2024-02-23T00:47:54;36.63;;;34.93;;
19905;SDS011;10115;50.906;4.438;2024-02-23T00:50:21;39.87;;;38.07;;
19905;SDS011;10115;50.906;4.438;2024-02-23T00:52:48;40.00;;;38.20;;
19905;SDS011;10115;50.906;4.438;2024-02-23T00:55:14;39.50;;;37.60;;
19905;SDS011;10115;50.906;4.438;2024-02-23T00:57:40;39.80;;;38.07;;
19905;SDS011;10115;50.906;4.438;2024-02-23T01:00:05;39.30;;;37.30;;
19905;SDS011;10115;50.906;4.438;2024-02-23T01:02:32;38.80;;;37.10;;
19905;SDS011;10115;50.906;4.438;2024-02-23T01:05:00;38.63;;;36.93;;
19905;SDS011;10115;50.906;4.438;2024-02-23T01:07:26;40.90;;;39.10;;
19905;SDS011;10115;50.906;4.438;2024-02-23T01:09:51;41.93;;;40.07;;
19905;SDS011;10115;50.906;4.438;2024-02-23T01:12:17;41.27;;;39.43;;
19905;SDS011;10115;50.906;4.438;2024-02-23T01:14:43;44.13;;;41.70;;
19905;SDS011;10115;50.906;4.438;2024-02-23T01:17:08;39.67;;;37.90;;
19905;SDS011;10115;50.906;4.438;2024-02-23T01:19:34;32.90;;;31.30;;
19905;SDS011;10115;50.906;4.438;2024-02-23T01:22:00;38.00;;;36.30;;
19905;SDS011;10115;50.906;4.438;2024-02-23T01:24:28;38.13;;;36.43;;
19905;SDS011;10115;50.906;4.438;2024-02-23T01:26:54;40.10;;;38.30;;
19905;SDS011;10115;50.906;4.438;2024-02-23T01:29:24;41.83;;;40.00;;
19905;SDS011;10115;50.906;4.438;2024-02-23T01:31:51;31.63;;;30.23;;
19905;SDS011;10115;50.906;4.438;2024-02-23T01:34:19;41.17;;;39.37;;
19905;SDS011;10115;50.906;4.438;2024-02-23T01:36:45;31.97;;;30.47;;
19905;SDS011;10115;50.906;4.438;2024-02-23T01:39:11;42.20;;;40.30;;
19905;SDS011;10115;50.906;4.438;2024-02-23T01:41:36;30.23;;;28.93;;
19905;SDS011;10115;50.906;4.438;2024-02-23T01:44:02;33.00;;;31.50;;
19905;SDS011;10115;50.906;4.438;2024-02-23T01:46:28;45.00;;;43.00;;
19905;SDS011;10115;50.906;4.438;2024-02-23T01:48:54;46.83;;;44.63;;
19905;SDS011;10115;50.906;4.438;2024-02-23T01:51:20;44.27;;;42.27;;
19905;SDS011;10115;50.906;4.438;2024-02-23T01:53:46;46.80;;;44.70;;
19905;SDS011;10115;50.906;4.438;2024-02-23T01:56:12;31.33;;;29.93;;
19905;SDS011;10115;50.906;4.438;2024-02-23T01:58:42;41.20;;;39.27;;
19905;SDS011;10115;50.906;4.438;2024-02-23T02:01:09;37.30;;;35.70;;
19905;SDS011;10115;50.906;4.438;2024-02-23T02:03:36;20.20;;;19.30;;
19905;SDS011;10115;50.906;4.438;2024-02-23T02:06:04;34.63;;;33.07;;
19905;SDS011;10115;50.906;4.438;2024-02-23T02:08:31;47.33;;;45.07;;
19905;SDS011;10115;50.906;4.438;2024-02-23T02:10:58;44.03;;;42.10;;
19905;SDS011;10115;50.906;4.438;2024-02-23T02:13:24;28.13;;;26.83;;
19905;SDS011;10115;50.906;4.438;2024-02-23T02:15:49;23.40;;;22.20;;
19905;SDS011;10115;50.906;4.438;2024-02-23T02:18:15;21.27;;;20.37;;
19905;SDS011;10115;50.906;4.438;2024-02-23T02:20:53;23.40;;;21.93;;
19905;SDS011;10115;50.906;4.438;2024-02-23T02:23:20;23.87;;;22.87;;
19905;SDS011;10115;50.906;4.438;2024-02-23T02:25:52;23.03;;;21.10;;
19905;SDS011;10115;50.906;4.438;2024-02-23T02:28:18;19.40;;;18.60;;
19905;SDS011;10115;50.906;4.438;2024-02-23T02:30:44;23.00;;;21.87;;
19905;SDS011;10115;50.906;4.438;2024-02-23T02:33:10;25.17;;;23.97;;
19905;SDS011;10115;50.906;4.438;2024-02-23T02:35:35;25.37;;;24.27;;
19905;SDS011;10115;50.906;4.438;2024-02-23T02:38:01;22.07;;;20.83;;
19905;SDS011;10115;50.906;4.438;2024-02-23T02:40:26;19.83;;;18.80;;
19905;SDS011;10115;50.906;4.438;2024-02-23T02:42:52;19.73;;;18.83;;
19905;SDS011;10115;50.906;4.438;2024-02-23T02:45:18;18.13;;;17.33;;
19905;SDS011;10115;50.906;4.438;2024-02-23T02:47:43;17.60;;;16.60;;
19905;SDS011;10115;50.906;4.438;2024-02-23T02:50:09;41.93;;;39.93;;
19905;SDS011;10115;50.906;4.438;2024-02-23T02:52:34;43.63;;;41.63;;
19905;SDS011;10115;50.906;4.438;2024-02-23T02:55:00;41.70;;;39.80;;
19905;SDS011;10115;50.906;4.438;2024-02-23T02:57:26;37.13;;;35.43;;
19905;SDS011;10115;50.906;4.438;2024-02-23T02:59:51;28.23;;;27.03;;
19905;SDS011;10115;50.906;4.438;2024-02-23T03:02:17;31.10;;;29.70;;
19905;SDS011;10115;50.906;4.438;2024-02-23T03:04:49;31.17;;;29.67;;
19905;SDS011;10115;50.906;4.438;2024-02-23T03:07:15;27.07;;;25.87;;
19905;SDS011;10115;50.906;4.438;2024-02-23T03:09:42;26.67;;;25.47;;
19905;SDS011;10115;50.906;4.438;2024-02-23T03:12:08;22.60;;;21.60;;
19905;SDS011;10115;50.906;4.438;2024-02-23T03:14:34;42.20;;;39.83;;
19905;SDS011;10115;50.906;4.438;2024-02-23T03:16:59;35.97;;;34.37;;
19905;SDS011;10115;50.906;4.438;2024-02-23T03:19:25;22.57;;;21.57;;
19905;SDS011;10115;50.906;4.438;2024-02-23T03:21:51;23.80;;;22.70;;
19905;SDS011;10115;50.906;4.438;2024-02-23T03:24:17;23.13;;;22.13;;
19905;SDS011;10115;50.906;4.438;2024-02-23T03:26:42;21.77;;;20.40;;
19905;SDS011;10115;50.906;4.438;2024-02-23T03:29:09;39.77;;;38.00;;
19905;SDS011;10115;50.906;4.438;2024-02-23T03:31:35;20.17;;;19.27;;
19905;SDS011;10115;50.906;4.438;2024-02-23T03:34:01;20.80;;;19.90;;
19905;SDS011;10115;50.906;4.438;2024-02-23T03:36:27;21.60;;;20.60;;
19905;SDS011;10115;50.906;4.438;2024-02-23T03:38:53;37.23;;;35.00;;
19905;SDS011;10115;50.906;4.438;2024-02-23T03:41:18;38.77;;;36.97;;
19905;SDS011;10115;50.906;4.438;2024-02-23T03:43:44;35.83;;;33.63;;
19905;SDS011;10115;50.906;4.438;2024-02-23T03:46:10;40.80;;;38.80;;
19905;SDS011;10115;50.906;4.438;2024-02-23T03:48:36;22.73;;;21.30;;
19905;SDS011;10115;50.906;4.438;2024-02-23T03:51:03;25.77;;;24.27;;
19905;SDS011;10115;50.906;4.438;2024-02-23T03:53:30;23.43;;;22.33;;
19905;SDS011;10115;50.906;4.438;2024-02-23T03:55:56;28.80;;;27.10;;
19905;SDS011;10115;50.906;4.438;2024-02-23T03:58:22;21.63;;;20.63;;
19905;SDS011;10115;50.906;4.438;2024-02-23T04:00:48;21.13;;;20.13;;
19905;SDS011;10115;50.906;4.438;2024-02-23T04:03:13;20.87;;;19.93;;
19905;SDS011;10115;50.906;4.438;2024-02-23T04:05:39;22.00;;;21.00;;
19905;SDS011;10115;50.906;4.438;2024-02-23T04:08:05;18.30;;;17.40;;
19905;SDS011;10115;50.906;4.438;2024-02-23T04:10:31;22.53;;;20.47;;
19905;SDS011;10115;50.906;4.438;2024-02-23T04:12:57;33.27;;;31.67;;
19905;SDS011;10115;50.906;4.438;2024-02-23T04:15:23;37.57;;;35.87;;
19905;SDS011;10115;50.906;4.438;2024-02-23T04:17:49;41.90;;;40.00;;
19905;SDS011;10115;50.906;4.438;2024-02-23T04:20:14;22.80;;;21.37;;
19905;SDS011;10115;50.906;4.438;2024-02-23T04:22:40;40.57;;;38.77;;
19905;SDS011;10115;50.906;4.438;2024-02-23T04:25:05;21.57;;;20.57;;
19905;SDS011;10115;50.906;4.438;2024-02-23T04:27:31;45.83;;;43.63;;
19905;SDS011;10115;50.906;4.438;2024-02-23T04:29:57;38.20;;;36.50;;
19905;SDS011;10115;50.906;4.438;2024-02-23T04:32:23;42.07;;;39.83;;
19905;SDS011;10115;50.906;4.438;2024-02-23T04:34:48;25.23;;;23.83;;
19905;SDS011;10115;50.906;4.438;2024-02-23T04:37:14;21.60;;;20.17;;
19905;SDS011;10115;50.906;4.438;2024-02-23T04:39:40;24.77;;;22.73;;
19905;SDS011;10115;50.906;4.438;2024-02-23T04:42:07;40.53;;;38.70;;
19905;SDS011;10115;50.906;4.438;2024-02-23T04:44:33;20.17;;;18.70;;
19905;SDS011;10115;50.906;4.438;2024-02-23T04:47:00;47.00;;;44.77;;
19905;SDS011;10115;50.906;4.438;2024-02-23T04:49:25;48.53;;;46.27;;
19905;SDS011;10115;50.906;4.438;2024-02-23T04:51:51;24.50;;;23.20;;
19905;SDS011;10115;50.906;4.438;2024-02-23T04:54:17;37.27;;;35.23;;
19905;SDS011;10115;50.906;4.438;2024-02-23T04:56:43;22.53;;;21.00;;
19905;SDS011;10115;50.906;4.438;2024-02-23T04:59:09;42.47;;;39.97;;
19905;SDS011;10115;50.906;4.438;2024-02-23T05:01:35;32.50;;;20.97;;
19905;SDS011;10115;50.906;4.438;2024-02-23T05:04:02;32.93;;;31.07;;
19905;SDS011;10115;50.906;4.438;2024-02-23T05:06:28;39.67;;;37.53;;
19905;SDS011;10115;50.906;4.438;2024-02-23T05:08:54;28.17;;;26.43;;
19905;SDS011;10115;50.906;4.438;2024-02-23T05:11:20;20.70;;;19.30;;
19905;SDS011;10115;50.906;4.438;2024-02-23T05:13:46;36.03;;;34.40;;
19905;SDS011;10115;50.906;4.438;2024-02-23T05:16:15;21.20;;;19.73;;
19905;SDS011;10115;50.906;4.438;2024-02-23T05:18:41;24.60;;;22.27;;
19905;SDS011;10115;50.906;4.438;2024-02-23T05:21:08;22.30;;;20.77;;
19905;SDS011;10115;50.906;4.438;2024-02-23T05:23:34;20.50;;;19.60;;
19905;SDS011;10115;50.906;4.438;2024-02-23T05:26:01;17.87;;;17.07;;
19905;SDS011;10115;50.906;4.438;2024-02-23T05:28:26;17.63;;;16.70;;
19905;SDS011;10115;50.906;4.438;2024-02-23T05:30:53;25.83;;;24.53;;
19905;SDS011;10115;50.906;4.438;2024-02-23T05:33:19;36.93;;;34.90;;
19905;SDS011;10115;50.906;4.438;2024-02-23T05:35:49;21.27;;;20.37;;
19905;SDS011;10115;50.906;4.438;2024-02-23T05:38:15;21.40;;;19.57;;
19905;SDS011;10115;50.906;4.438;2024-02-23T05:40:41;17.57;;;16.33;;
19905;SDS011;10115;50.906;4.438;2024-02-23T05:43:06;38.30;;;36.20;;
19905;SDS011;10115;50.906;4.438;2024-02-23T05:45:32;38.00;;;35.90;;
19905;SDS011;10115;50.906;4.438;2024-02-23T05:47:58;23.50;;;22.50;;
19905;SDS011;10115;50.906;4.438;2024-02-23T05:50:24;28.10;;;26.47;;
19905;SDS011;10115;50.906;4.438;2024-02-23T05:52:49;33.97;;;32.47;;
19905;SDS011;10115;50.906;4.438;2024-02-23T05:55:15;21.73;;;20.73;;
19905;SDS011;10115;50.906;4.438;2024-02-23T05:57:40;21.43;;;20.10;;
19905;SDS011;10115;50.906;4.438;2024-02-23T06:00:06;27.53;;;22.20;;
19905;SDS011;10115;50.906;4.438;2024-02-23T06:02:32;38.40;;;36.60;;
19905;SDS011;10115;50.906;4.438;2024-02-23T06:04:58;38.07;;;36.33;;
19905;SDS011;10115;50.906;4.438;2024-02-23T06:07:24;21.10;;;20.10;;
19905;SDS011;10115;50.906;4.438;2024-02-23T06:09:57;21.23;;;20.20;;
19905;SDS011;10115;50.906;4.438;2024-02-23T06:12:23;20.90;;;19.90;;
19905;SDS011;10115;50.906;4.438;2024-02-23T06:14:50;20.90;;;19.87;;
19905;SDS011;10115;50.906;4.438;2024-02-23T06:17:16;21.27;;;20.37;;
19905;SDS011;10115;50.906;4.438;2024-02-23T06:19:42;22.70;;;21.30;;
19905;SDS011;10115;50.906;4.438;2024-02-23T06:22:07;19.63;;;18.80;;
19905;SDS011;10115;50.906;4.438;2024-02-23T06:24:35;18.63;;;17.53;;
19905;SDS011;10115;50.906;4.438;2024-02-23T06:27:01;19.90;;;18.57;;
19905;SDS011;10115;50.906;4.438;2024-02-23T06:29:28;18.60;;;17.60;;
19905;SDS011;10115;50.906;4.438;2024-02-23T06:31:54;25.20;;;23.83;;
19905;SDS011;10115;50.906;4.438;2024-02-23T06:34:20;19.10;;;18.20;;
19905;SDS011;10115;50.906;4.438;2024-02-23T06:36:46;22.77;;;21.77;;
19905;SDS011;10115;50.906;4.438;2024-02-23T06:39:11;21.33;;;20.33;;
19905;SDS011;10115;50.906;4.438;2024-02-23T06:41:40;23.70;;;22.23;;
19905;SDS011;10115;50.906;4.438;2024-02-23T06:44:06;21.43;;;20.13;;
19905;SDS011;10115;50.906;4.438;2024-02-23T06:46:31;22.40;;;21.30;;
19905;SDS011;10115;50.906;4.438;2024-02-23T06:48:57;19.93;;;18.50;;
19905;SDS011;10115;50.906;4.438;2024-02-23T06:51:22;18.10;;;17.30;;
19905;SDS011;10115;50.906;4.438;2024-02-23T06:53:48;17.40;;;16.50;;
19905;SDS011;10115;50.906;4.438;2024-02-23T06:56:14;17.77;;;16.70;;
19905;SDS011;10115;50.906;4.438;2024-02-23T06:58:39;37.37;;;35.57;;
19905;SDS011;10115;50.906;4.438;2024-02-23T07:01:05;39.13;;;37.43;;
19905;SDS011;10115;50.906;4.438;2024-02-23T07:03:32;22.43;;;21.43;;
19905;SDS011;10115;50.906;4.438;2024-02-23T07:05:58;21.93;;;20.67;;
19905;SDS011;10115;50.906;4.438;2024-02-23T07:08:24;24.20;;;22.57;;
19905;SDS011;10115;50.906;4.438;2024-02-23T07:10:49;22.60;;;21.50;;
19905;SDS011;10115;50.906;4.438;2024-02-23T07:13:15;20.37;;;19.43;;
19905;SDS011;10115;50.906;4.438;2024-02-23T07:15:43;23.23;;;19.37;;
19905;SDS011;10115;50.906;4.438;2024-02-23T07:18:08;19.33;;;18.53;;
19905;SDS011;10115;50.906;4.438;2024-02-23T07:20:37;19.90;;;18.80;;
19905;SDS011;10115;50.906;4.438;2024-02-23T07:23:03;23.63;;;22.40;;
19905;SDS011;10115;50.906;4.438;2024-02-23T07:25:29;38.50;;;36.80;;
19905;SDS011;10115;50.906;4.438;2024-02-23T07:27:55;36.77;;;35.17;;
19905;SDS011;10115;50.906;4.438;2024-02-23T07:30:21;41.77;;;39.60;;
19905;SDS011;10115;50.906;4.438;2024-02-23T07:32:47;21.57;;;20.57;;
19905;SDS011;10115;50.906;4.438;2024-02-23T07:35:13;19.93;;;18.90;;
19905;SDS011;10115;50.906;4.438;2024-02-23T07:37:39;38.93;;;37.13;;
19905;SDS011;10115;50.906;4.438;2024-02-23T07:40:05;19.60;;;18.70;;
19905;SDS011;10115;50.906;4.438;2024-02-23T07:42:31;38.23;;;36.07;;
19905;SDS011;10115;50.906;4.438;2024-02-23T07:44:57;29.73;;;28.03;;
19905;SDS011;10115;50.906;4.438;2024-02-23T07:47:23;23.93;;;22.73;;
19905;SDS011;10115;50.906;4.438;2024-02-23T07:49:49;23.33;;;22.33;;
19905;SDS011;10115;50.906;4.438;2024-02-23T07:52:16;36.57;;;34.97;;
19905;SDS011;10115;50.906;4.438;2024-02-23T07:54:41;39.73;;;37.93;;
19905;SDS011;10115;50.906;4.438;2024-02-23T07:57:07;18.37;;;17.07;;
19905;SDS011;10115;50.906;4.438;2024-02-23T07:59:33;35.40;;;33.50;;
19905;SDS011;10115;50.906;4.438;2024-02-23T08:01:59;35.50;;;33.90;;
19905;SDS011;10115;50.906;4.438;2024-02-23T08:04:24;19.20;;;18.30;;
19905;SDS011;10115;50.906;4.438;2024-02-23T08:06:50;19.67;;;17.93;;
19905;SDS011;10115;50.906;4.438;2024-02-23T08:09:16;24.80;;;23.53;;
19905;SDS011;10115;50.906;4.438;2024-02-23T08:11:42;16.87;;;16.13;;
19905;SDS011;10115;50.906;4.438;2024-02-23T08:14:08;19.97;;;18.83;;
19905;SDS011;10115;50.906;4.438;2024-02-23T08:16:34;28.60;;;27.27;;
19905;SDS011;10115;50.906;4.438;2024-02-23T08:18:59;33.27;;;31.67;;
19905;SDS011;10115;50.906;4.438;2024-02-23T08:21:25;36.17;;;34.57;;
19905;SDS011;10115;50.906;4.438;2024-02-23T08:23:53;31.80;;;21.07;;
19905;SDS011;10115;50.906;4.438;2024-02-23T08:26:19;24.57;;;23.07;;
19905;SDS011;10115;50.906;4.438;2024-02-23T08:28:45;20.33;;;19.23;;
19905;SDS011;10115;50.906;4.438;2024-02-23T08:31:10;19.23;;;18.33;;
19905;SDS011;10115;50.906;4.438;2024-02-23T08:33:36;18.90;;;18.00;;
19905;SDS011;10115;50.906;4.438;2024-02-23T08:36:02;16.93;;;16.23;;
19905;SDS011;10115;50.906;4.438;2024-02-23T08:38:30;17.23;;;16.10;;
19905;SDS011;10115;50.906;4.438;2024-02-23T08:40:59;15.70;;;14.80;;
19905;SDS011;10115;50.906;4.438;2024-02-23T08:43:25;16.10;;;15.40;;
19905;SDS011;10115;50.906;4.438;2024-02-23T08:45:50;14.40;;;13.80;;
19905;SDS011;10115;50.906;4.438;2024-02-23T08:48:16;17.50;;;16.70;;
19905;SDS011;10115;50.906;4.438;2024-02-23T08:50:43;17.10;;;16.40;;
19905;SDS011;10115;50.906;4.438;2024-02-23T08:53:08;43.17;;;40.90;;
19905;SDS011;10115;50.906;4.438;2024-02-23T08:55:34;18.00;;;16.30;;
19905;SDS011;10115;50.906;4.438;2024-02-23T08:58:00;17.47;;;16.50;;
19905;SDS011;10115;50.906;4.438;2024-02-23T09:00:25;16.30;;;15.20;;
19905;SDS011;10115;50.906;4.438;2024-02-23T09:02:51;16.80;;;15.23;;
19905;SDS011;10115;50.906;4.438;2024-02-23T09:05:17;15.43;;;14.50;;
19905;SDS011;10115;50.906;4.438;2024-02-23T09:07:42;15.30;;;14.60;;
19905;SDS011;10115;50.906;4.438;2024-02-23T09:10:08;19.37;;;17.90;;
19905;SDS011;10115;50.906;4.438;2024-02-23T09:12:34;30.80;;;28.43;;
19905;SDS011;10115;50.906;4.438;2024-02-23T09:14:59;45.63;;;43.13;;
19905;SDS011;10115;50.906;4.438;2024-02-23T09:17:25;17.87;;;16.80;;
19905;SDS011;10115;50.906;4.438;2024-02-23T09:19:51;17.90;;;17.00;;
19905;SDS011;10115;50.906;4.438;2024-02-23T09:22:16;20.73;;;19.30;;
19905;SDS011;10115;50.906;4.438;2024-02-23T09:24:42;17.30;;;16.40;;
19905;SDS011;10115;50.906;4.438;2024-02-23T09:27:08;19.10;;;18.10;;
19905;SDS011;10115;50.906;4.438;2024-02-23T09:29:34;17.87;;;17.07;;
19905;SDS011;10115;50.906;4.438;2024-02-23T09:32:00;17.27;;;16.33;;
19905;SDS011;10115;50.906;4.438;2024-02-23T09:34:26;15.93;;;15.20;;
19905;SDS011;10115;50.906;4.438;2024-02-23T09:36:52;14.77;;;14.07;;
19905;SDS011;10115;50.906;4.438;2024-02-23T09:39:17;16.80;;;15.90;;
19905;SDS011;10115;50.906;4.438;2024-02-23T09:41:43;33.30;;;31.80;;
19905;SDS011;10115;50.906;4.438;2024-02-23T09:44:09;37.60;;;35.90;;
19905;SDS011;10115;50.906;4.438;2024-02-23T09:46:36;19.63;;;18.60;;
19905;SDS011;10115;50.906;4.438;2024-02-23T09:49:03;22.17;;;21.03;;
19905;SDS011;10115;50.906;4.438;2024-02-23T09:51:31;20.50;;;19.37;;
19905;SDS011;10115;50.906;4.438;2024-02-23T09:53:58;16.00;;;15.10;;
19905;SDS011;10115;50.906;4.438;2024-02-23T09:56:25;40.63;;;38.77;;
19905;SDS011;10115;50.906;4.438;2024-02-23T09:58:54;30.93;;;28.93;;
19905;SDS011;10115;50.906;4.438;2024-02-23T10:01:27;29.57;;;28.17;;
19905;SDS011;10115;50.906;4.438;2024-02-23T10:03:55;32.63;;;30.83;;
19905;SDS011;10115;50.906;4.438;2024-02-23T10:06:23;33.57;;;31.83;;
19905;SDS011;10115;50.906;4.438;2024-02-23T10:08:49;33.63;;;31.80;;
19905;SDS011;10115;50.906;4.438;2024-02-23T10:11:18;32.90;;;30.93;;
19905;SDS011;10115;50.906;4.438;2024-02-23T10:13:44;31.87;;;30.27;;
19905;SDS011;10115;50.906;4.438;2024-02-23T10:16:09;39.20;;;37.13;;
19905;SDS011;10115;50.906;4.438;2024-02-23T10:18:37;37.20;;;35.43;;
19905;SDS011;10115;50.906;4.438;2024-02-23T10:21:04;26.57;;;25.30;;
19905;SDS011;10115;50.906;4.438;2024-02-23T10:23:30;26.10;;;24.93;;
19905;SDS011;10115;50.906;4.438;2024-02-23T10:25:56;29.17;;;27.50;;
19905;SDS011;10115;50.906;4.438;2024-02-23T10:28:21;37.77;;;35.80;;
19905;SDS011;10115;50.906;4.438;2024-02-23T10:30:48;33.63;;;32.13;;
19905;SDS011;10115;50.906;4.438;2024-02-23T10:33:14;33.90;;;32.30;;
19905;SDS011;10115;50.906;4.438;2024-02-23T10:35:40;18.27;;;17.23;;
19905;SDS011;10115;50.906;4.438;2024-02-23T10:38:09;18.00;;;17.00;;
19905;SDS011;10115;50.906;4.438;2024-02-23T10:40:36;39.30;;;37.20;;
19905;SDS011;10115;50.906;4.438;2024-02-23T10:43:09;29.27;;;27.70;;
19905;SDS011;10115;50.906;4.438;2024-02-23T10:45:41;37.70;;;35.60;;
19905;SDS011;10115;50.906;4.438;2024-02-23T10:48:11;33.00;;;31.30;;
19905;SDS011;10115;50.906;4.438;2024-02-23T10:50:39;39.63;;;37.43;;
19905;SDS011;10115;50.906;4.438;2024-02-23T10:55:39;13.77;;;13.17;;
19905;SDS011;10115;50.906;4.438;2024-02-23T10:58:06;17.87;;;17.07;;
19905;SDS011;10115;50.906;4.438;2024-02-23T11:00:36;34.47;;;32.87;;
19905;SDS011;10115;50.906;4.438;2024-02-23T11:03:02;39.20;;;37.27;;
19905;SDS011;10115;50.906;4.438;2024-02-23T11:05:29;38.20;;;35.87;;
19905;SDS011;10115;50.906;4.438;2024-02-23T11:07:56;20.90;;;19.60;;
19905;SDS011;10115;50.906;4.438;2024-02-23T11:10:22;34.27;;;32.57;;
19905;SDS011;10115;50.906;4.438;2024-02-23T11:12:57;33.40;;;31.80;;
19905;SDS011;10115;50.906;4.438;2024-02-23T11:15:26;23.63;;;22.53;;
19905;SDS011;10115;50.906;4.438;2024-02-23T11:17:53;18.87;;;17.53;;
19905;SDS011;10115;50.906;4.438;2024-02-23T11:20:24;16.23;;;15.43;;
19905;SDS011;10115;50.906;4.438;2024-02-23T11:23:12;30.30;;;28.33;;
19905;SDS011;10115;50.906;4.438;2024-02-23T11:25:39;21.80;;;19.77;;
19905;SDS011;10115;50.906;4.438;2024-02-23T11:33:08;16.03;;;14.90;;
19905;SDS011;10115;50.906;4.438;2024-02-23T11:35:33;14.30;;;13.60;;
19905;SDS011;10115;50.906;4.438;2024-02-23T11:37:59;13.83;;;13.23;;
19905;SDS011;10115;50.906;4.438;2024-02-23T11:40:32;16.50;;;15.50;;
19905;SDS011;10115;50.906;4.438;2024-02-23T11:42:58;22.07;;;21.00;;
19905;SDS011;10115;50.906;4.438;2024-02-23T11:45:25;34.07;;;32.53;;
19905;SDS011;10115;50.906;4.438;2024-02-23T11:50:20;30.40;;;29.00;;
19905;SDS011;10115;50.906;4.438;2024-02-23T11:52:46;31.03;;;29.40;;
19905;SDS011;10115;50.906;4.438;2024-02-23T11:55:12;30.43;;;28.53;;
19905;SDS011;10115;50.906;4.438;2024-02-23T11:57:44;32.67;;;31.17;;
19905;SDS011;10115;50.906;4.438;2024-02-23T12:00:10;19.73;;;18.73;;
19905;SDS011;10115;50.906;4.438;2024-02-23T12:02:36;19.70;;;18.80;;
19905;SDS011;10115;50.906;4.438;2024-02-23T12:05:02;18.90;;;18.00;;
19905;SDS011;10115;50.906;4.438;2024-02-23T12:07:31;38.67;;;36.87;;
19905;SDS011;10115;50.906;4.438;2024-02-23T12:09:58;40.03;;;38.13;;
19905;SDS011;10115;50.906;4.438;2024-02-23T12:12:25;17.50;;;16.47;;
19905;SDS011;10115;50.906;4.438;2024-02-23T12:14:51;16.40;;;15.50;;
19905;SDS011;10115;50.906;4.438;2024-02-23T12:17:16;17.57;;;16.57;;
19905;SDS011;10115;50.906;4.438;2024-02-23T12:19:42;16.30;;;15.50;;
19905;SDS011;10115;50.906;4.438;2024-02-23T12:22:08;15.90;;;15.20;;
19905;SDS011;10115;50.906;4.438;2024-02-23T12:24:36;15.50;;;14.70;;
19905;SDS011;10115;50.906;4.438;2024-02-23T12:27:02;16.50;;;15.47;;
19905;SDS011;10115;50.906;4.438;2024-02-23T12:29:28;14.43;;;13.83;;
19905;SDS011;10115;50.906;4.438;2024-02-23T12:32:03;15.47;;;14.37;;
19905;SDS011;10115;50.906;4.438;2024-02-23T12:34:32;14.33;;;13.13;;
19905;SDS011;10115;50.906;4.438;2024-02-23T12:36:59;13.17;;;12.57;;
19905;SDS011;10115;50.906;4.438;2024-02-23T12:39:28;12.93;;;12.23;;
19905;SDS011;10115;50.906;4.438;2024-02-23T12:41:53;12.70;;;12.20;;
19905;SDS011;10115;50.906;4.438;2024-02-23T12:44:21;14.33;;;13.30;;
19905;SDS011;10115;50.906;4.438;2024-02-23T12:46:47;14.63;;;13.37;;
19905;SDS011;10115;50.906;4.438;2024-02-23T12:49:13;13.97;;;13.07;;
19905;SDS011;10115;50.906;4.438;2024-02-23T12:51:38;12.83;;;12.00;;
19905;SDS011;10115;50.906;4.438;2024-02-23T12:54:04;13.40;;;12.70;;
19905;SDS011;10115;50.906;4.438;2024-02-23T12:56:30;13.60;;;12.63;;
19905;SDS011;10115;50.906;4.438;2024-02-23T12:58:55;14.30;;;13.27;;
19905;SDS011;10115;50.906;4.438;2024-02-23T13:01:22;14.77;;;13.53;;
19905;SDS011;10115;50.906;4.438;2024-02-23T13:03:47;15.00;;;14.23;;
19905;SDS011;10115;50.906;4.438;2024-02-23T13:06:13;14.10;;;13.20;;
19905;SDS011;10115;50.906;4.438;2024-02-23T13:08:39;13.73;;;13.07;;
19905;SDS011;10115;50.906;4.438;2024-02-23T13:11:05;14.53;;;13.83;;
19905;SDS011;10115;50.906;4.438;2024-02-23T13:13:31;12.70;;;12.17;;
19905;SDS011;10115;50.906;4.438;2024-02-23T13:15:57;14.43;;;13.83;;
19905;SDS011;10115;50.906;4.438;2024-02-23T13:18:22;13.27;;;12.37;;
19905;SDS011;10115;50.906;4.438;2024-02-23T13:20:48;12.83;;;12.23;;
19905;SDS011;10115;50.906;4.438;2024-02-23T13:23:14;13.13;;;12.33;;
19905;SDS011;10115;50.906;4.438;2024-02-23T13:25:40;13.67;;;12.60;;
19905;SDS011;10115;50.906;4.438;2024-02-23T13:28:07;12.77;;;12.07;;
19905;SDS011;10115;50.906;4.438;2024-02-23T13:30:34;13.87;;;13.00;;
19905;SDS011;10115;50.906;4.438;2024-02-23T13:33:00;13.57;;;12.93;;
19905;SDS011;10115;50.906;4.438;2024-02-23T13:35:26;13.27;;;12.57;;
19905;SDS011;10115;50.906;4.438;2024-02-23T13:37:56;13.67;;;13.07;;
19905;SDS011;10115;50.906;4.438;2024-02-23T13:40:22;11.93;;;11.43;;
19905;SDS011;10115;50.906;4.438;2024-02-23T13:42:48;12.93;;;12.10;;
19905;SDS011;10115;50.906;4.438;2024-02-23T13:45:17;13.53;;;12.57;;
19905;SDS011;10115;50.906;4.438;2024-02-23T13:47:44;13.67;;;13.07;;
19905;SDS011;10115;50.906;4.438;2024-02-23T13:50:21;13.77;;;12.80;;
19905;SDS011;10115;50.906;4.438;2024-02-23T13:52:48;12.47;;;11.87;;
19905;SDS011;10115;50.906;4.438;2024-02-23T13:55:17;11.97;;;11.47;;
19905;SDS011;10115;50.906;4.438;2024-02-23T13:57:42;12.70;;;11.93;;
19905;SDS011;10115;50.906;4.438;2024-02-23T14:00:08;13.50;;;12.83;;
19905;SDS011;10115;50.906;4.438;2024-02-23T14:02:37;13.70;;;12.83;;
19905;SDS011;10115;50.906;4.438;2024-02-23T14:05:05;15.53;;;14.37;;
19905;SDS011;10115;50.906;4.438;2024-02-23T14:07:32;14.30;;;13.40;;
19905;SDS011;10115;50.906;4.438;2024-02-23T14:10:01;13.10;;;12.13;;
19905;SDS011;10115;50.906;4.438;2024-02-23T14:12:28;12.90;;;11.87;;
19905;SDS011;10115;50.906;4.438;2024-02-23T14:14:54;12.77;;;12.17;;
19905;SDS011;10115;50.906;4.438;2024-02-23T14:17:20;11.93;;;11.33;;
19905;SDS011;10115;50.906;4.438;2024-02-23T14:19:45;12.63;;;12.00;;
19905;SDS011;10115;50.906;4.438;2024-02-23T14:22:11;13.30;;;12.60;;
19905;SDS011;10115;50.906;4.438;2024-02-23T14:24:37;12.07;;;11.43;;
19905;SDS011;10115;50.906;4.438;2024-02-23T14:27:03;13.13;;;11.90;;